createdAt,value
2024-02-13T18:21:02.409Z,6.20
2024-02-13T18:22:05.720Z,7.13
2024-02-13T18:23:11.386Z,6.80
2024-02-13T18:24:13.862Z,7.95
2024-02-13T18:25:16.580Z,8.05
2024-02-13T18:26:23.261Z,8.60
2024-02-13T18:27:25.497Z,10.30
2024-02-13T18:28:29.453Z,8.63
2024-02-13T18:29:34.132Z,8.75
2024-02-13T18:30:36.854Z,7.97
2024-02-13T18:31:39.843Z,6.97
2024-02-13T18:32:42.711Z,7.35
2024-02-13T18:33:45.236Z,6.30
2024-02-13T18:34:47.751Z,5.18
2024-02-13T18:35:50.248Z,5.93
2024-02-13T18:36:52.675Z,6.65
2024-02-13T18:37:55.141Z,5.35
2024-02-13T18:38:57.953Z,6.55
2024-02-13T18:40:00.982Z,6.22
2024-02-13T18:41:03.978Z,5.35
2024-02-13T18:42:06.368Z,6.05
2024-02-13T18:43:08.956Z,5.00
2024-02-13T18:44:11.434Z,5.78
2024-02-13T18:45:14.149Z,5.90
2024-02-13T18:46:16.558Z,6.85
2024-02-13T18:47:19.280Z,6.70
2024-02-13T18:48:24.039Z,7.28
2024-02-13T18:49:26.672Z,7.20
2024-02-13T18:50:29.182Z,6.00
2024-02-13T18:51:32.128Z,6.68
2024-02-13T18:52:34.345Z,7.22
2024-02-13T18:53:36.918Z,7.22
2024-02-13T18:54:39.722Z,7.03
2024-02-13T18:55:45.382Z,8.20
2024-02-13T18:56:49.641Z,7.32
2024-02-13T18:57:52.960Z,8.05
2024-02-13T18:58:55.680Z,9.00
2024-02-13T18:59:58.423Z,8.27
2024-02-13T19:01:01.355Z,8.85
2024-02-13T19:02:04.078Z,9.68
2024-02-13T19:03:08.611Z,8.82
2024-02-13T19:04:11.095Z,8.50
2024-02-13T19:05:13.859Z,8.45
2024-02-13T19:06:21.562Z,8.13
2024-02-13T19:07:23.969Z,8.10
2024-02-13T19:08:26.631Z,7.28
2024-02-13T19:09:31.657Z,7.85
2024-02-13T19:10:37.035Z,7.75
2024-02-13T19:11:41.309Z,7.35
2024-02-13T19:12:44.388Z,8.23
2024-02-13T19:13:46.865Z,8.10
2024-02-13T19:14:49.420Z,8.48
2024-02-13T19:15:52.038Z,7.22
2024-02-13T19:16:54.673Z,8.23
2024-02-13T19:17:57.725Z,6.80
2024-02-13T19:19:04.702Z,7.32
2024-02-13T19:20:08.894Z,7.68
2024-02-13T19:21:11.303Z,9.18
2024-02-13T19:22:14.564Z,10.00
2024-02-13T19:23:22.277Z,8.25
2024-02-13T19:24:24.800Z,7.78
2024-02-13T19:25:27.083Z,9.23
2024-02-13T19:26:29.821Z,7.25
2024-02-13T19:27:33.558Z,9.02
2024-02-13T19:28:37.678Z,8.60
2024-02-13T19:29:41.507Z,7.15
2024-02-13T19:30:44.699Z,9.10
2024-02-13T19:31:47.044Z,7.72
2024-02-13T19:32:49.617Z,7.55
2024-02-13T19:33:52.295Z,8.52
2024-02-13T19:34:54.717Z,8.15
2024-02-13T19:35:57.482Z,8.00
2024-02-13T19:37:00.222Z,8.10
2024-02-13T19:38:02.608Z,8.55
2024-02-13T19:39:05.207Z,8.02
2024-02-13T19:40:08.693Z,7.47
2024-02-13T19:41:16.668Z,7.70
2024-02-13T19:42:19.265Z,7.78
2024-02-13T19:43:21.697Z,8.05
2024-02-13T19:44:24.772Z,7.32
2024-02-13T19:45:27.324Z,7.72
2024-02-13T19:46:30.780Z,7.93
2024-02-13T19:47:34.612Z,7.38
2024-02-13T19:48:38.714Z,6.78
2024-02-13T19:49:41.473Z,7.28
2024-02-13T19:50:43.904Z,6.15
2024-02-13T19:51:46.869Z,7.53
2024-02-13T19:52:49.449Z,7.28
2024-02-13T19:53:52.849Z,7.63
2024-02-13T19:54:55.439Z,6.88
2024-02-13T19:55:58.414Z,7.13
2024-02-13T19:57:00.789Z,7.80
2024-02-13T19:58:04.150Z,9.68
2024-02-13T19:59:06.617Z,9.73
2024-02-13T20:00:10.916Z,8.60
2024-02-13T20:01:13.853Z,9.82
2024-02-13T20:02:20.321Z,9.60
2024-02-13T20:03:23.724Z,10.60
2024-02-13T20:04:26.187Z,10.30
2024-02-13T20:05:29.296Z,9.88
2024-02-13T20:06:33.716Z,11.25
2024-02-13T20:07:38.900Z,9.98
2024-02-13T20:08:41.509Z,9.57
2024-02-13T20:09:45.791Z,10.15
2024-02-13T20:10:48.310Z,9.50
2024-02-13T20:11:51.523Z,10.95
2024-02-13T20:12:55.490Z,10.48
2024-02-13T20:13:59.315Z,10.00
2024-02-13T20:15:02.250Z,11.07
2024-02-13T20:16:05.724Z,11.52
2024-02-13T20:17:08.592Z,10.75
2024-02-13T20:18:12.738Z,10.77
2024-02-13T20:19:15.937Z,10.00
2024-02-13T20:20:18.838Z,10.60
2024-02-13T20:21:22.173Z,10.18
2024-02-13T20:22:24.876Z,9.93
2024-02-13T20:23:27.340Z,9.45
2024-02-13T20:24:33.208Z,9.82
2024-02-13T20:25:35.861Z,10.85
2024-02-13T20:26:39.000Z,9.40
2024-02-13T20:27:45.414Z,10.43
2024-02-13T20:28:48.161Z,8.73
2024-02-13T20:29:51.626Z,8.20
2024-02-13T20:30:54.505Z,8.93
2024-02-13T20:31:58.429Z,8.98
2024-02-13T20:33:01.570Z,7.93
2024-02-13T20:34:04.749Z,9.23
2024-02-13T20:35:08.787Z,8.90
2024-02-13T20:36:11.765Z,9.13
2024-02-13T20:37:15.960Z,9.55
2024-02-13T20:38:18.453Z,8.85
2024-02-13T20:39:20.920Z,8.95
2024-02-13T20:40:23.848Z,10.07
2024-02-13T20:41:26.149Z,9.20
2024-02-13T20:42:29.677Z,8.48
2024-02-13T20:43:32.278Z,8.55
2024-02-13T20:44:34.567Z,8.90
2024-02-13T20:45:37.277Z,8.75
2024-02-13T20:46:42.294Z,9.38
2024-02-13T20:47:45.065Z,8.05
2024-02-13T20:48:47.879Z,8.80
2024-02-13T20:49:50.908Z,9.05
2024-02-13T20:50:53.584Z,8.38
2024-02-13T20:51:56.128Z,8.43
2024-02-13T20:52:58.751Z,8.80
2024-02-13T20:54:02.516Z,9.15
2024-02-13T20:55:06.046Z,9.00
2024-02-13T20:56:08.276Z,10.93
2024-02-13T20:57:10.506Z,9.02
2024-02-13T20:58:15.738Z,10.07
2024-02-13T20:59:21.274Z,9.55
2024-02-13T21:00:24.333Z,8.98
2024-02-13T21:01:36.245Z,8.90
2024-02-13T21:02:38.922Z,8.77
2024-02-13T21:03:41.419Z,8.32
2024-02-13T21:04:47.152Z,8.07
2024-02-13T21:05:51.894Z,9.15
2024-02-13T21:06:55.584Z,8.23
2024-02-13T21:07:58.452Z,7.57
2024-02-13T21:09:00.749Z,8.68
2024-02-13T21:10:04.952Z,7.63
2024-02-13T21:11:07.463Z,6.88
2024-02-13T21:12:12.058Z,6.72
2024-02-13T21:13:17.788Z,6.00
2024-02-13T21:14:20.498Z,7.05
2024-02-13T21:15:24.000Z,6.88
2024-02-13T21:16:27.925Z,6.97
2024-02-13T21:17:32.439Z,6.47
2024-02-13T21:18:34.722Z,7.18
2024-02-13T21:19:37.149Z,6.18
2024-02-13T21:20:47.554Z,6.60
2024-02-13T21:22:08.835Z,8.07
2024-02-13T21:23:29.935Z,6.85
2024-02-13T21:24:32.478Z,7.47
2024-02-13T21:25:35.226Z,7.78
2024-02-13T21:26:41.290Z,7.47
2024-02-13T21:27:43.798Z,7.28
2024-02-13T21:28:46.437Z,8.32
2024-02-13T21:29:49.205Z,7.43
2024-02-13T21:30:52.507Z,7.75
2024-02-13T21:31:55.550Z,7.65
2024-02-13T21:32:58.640Z,8.85
2024-02-13T21:34:07.481Z,8.30
2024-02-13T21:35:14.159Z,7.13
2024-02-13T21:36:16.601Z,8.02
2024-02-13T21:37:18.915Z,7.65
2024-02-13T21:38:21.311Z,7.65
2024-02-13T21:39:25.794Z,8.27
2024-02-13T21:40:28.707Z,7.65
2024-02-13T21:41:31.544Z,8.65
2024-02-13T21:42:34.094Z,7.68
2024-02-13T21:43:37.893Z,7.85
2024-02-13T21:44:42.924Z,8.32
2024-02-13T21:45:46.506Z,7.82
2024-02-13T21:46:48.932Z,7.40
2024-02-13T21:47:51.281Z,8.68
2024-02-13T21:48:53.907Z,7.78
2024-02-13T21:49:56.416Z,8.05
2024-02-13T21:50:58.954Z,7.18
2024-02-13T21:52:01.414Z,7.30
2024-02-13T21:53:04.214Z,7.60
2024-02-13T21:54:07.685Z,7.57
2024-02-13T21:55:10.700Z,7.53
2024-02-13T21:56:12.956Z,8.40
2024-02-13T21:57:15.451Z,7.60
2024-02-13T21:58:19.586Z,7.43
2024-02-13T21:59:22.563Z,7.72
2024-02-13T22:00:24.969Z,7.53
2024-02-13T22:01:27.584Z,6.80
2024-02-13T22:02:30.036Z,7.57
2024-02-13T22:03:33.641Z,7.28
2024-02-13T22:04:36.294Z,7.97
2024-02-13T22:05:38.885Z,7.80
2024-02-13T22:06:41.358Z,7.05
2024-02-13T22:07:43.898Z,7.05
2024-02-13T22:08:47.310Z,8.27
2024-02-13T22:09:49.738Z,8.02
2024-02-13T22:10:52.500Z,7.90
2024-02-13T22:11:55.009Z,7.07
2024-02-13T22:12:58.049Z,7.38
2024-02-13T22:14:02.346Z,7.25
2024-02-13T22:15:05.783Z,8.15
2024-02-13T22:16:10.464Z,7.75
2024-02-13T22:17:13.150Z,7.70
2024-02-13T22:18:15.700Z,8.43
2024-02-13T22:19:18.708Z,7.25
2024-02-13T22:20:21.401Z,7.40
2024-02-13T22:21:25.796Z,7.30
2024-02-13T22:22:28.661Z,8.30
2024-02-13T22:23:31.216Z,7.43
2024-02-13T22:24:34.304Z,7.65
2024-02-13T22:25:37.510Z,7.70
2024-02-13T22:26:40.507Z,7.88
2024-02-13T22:27:43.273Z,7.22
2024-02-13T22:28:46.117Z,7.40
2024-02-13T22:29:48.514Z,9.18
2024-02-13T22:30:50.954Z,8.10
2024-02-13T22:31:53.342Z,7.35
2024-02-13T22:32:56.770Z,6.72
2024-02-13T22:33:59.365Z,8.45
2024-02-13T22:35:02.160Z,8.35
2024-02-13T22:36:04.930Z,8.40
2024-02-13T22:37:07.317Z,7.25
2024-02-13T22:38:09.727Z,7.47
2024-02-13T22:39:13.650Z,7.72
2024-02-13T22:40:16.789Z,7.80
2024-02-13T22:41:19.332Z,7.32
2024-02-13T22:42:21.836Z,7.65
2024-02-13T22:43:24.276Z,8.05
2024-02-13T22:44:27.071Z,8.45
2024-02-13T22:45:29.644Z,7.50
2024-02-13T22:46:32.064Z,6.78
2024-02-13T22:47:39.950Z,8.18
2024-02-13T22:48:42.619Z,8.30
2024-02-13T22:49:46.049Z,7.38
2024-02-13T22:50:48.918Z,7.95
2024-02-13T22:51:51.503Z,7.97
2024-02-13T22:52:56.555Z,8.88
2024-02-13T22:53:59.188Z,8.63
2024-02-13T22:55:02.678Z,8.75
2024-02-13T22:56:05.601Z,8.90
2024-02-13T22:57:08.168Z,8.30
2024-02-13T22:58:10.646Z,8.55
2024-02-13T22:59:14.069Z,8.95
2024-02-13T23:00:35.259Z,8.48
2024-02-13T23:01:38.123Z,7.80
2024-02-13T23:02:40.634Z,8.70
2024-02-13T23:03:43.738Z,8.57
2024-02-13T23:04:51.791Z,8.75
2024-02-13T23:05:59.211Z,8.88
2024-02-13T23:07:02.335Z,9.23
2024-02-13T23:08:07.016Z,11.23
2024-02-13T23:09:18.029Z,13.77
2024-02-13T23:10:21.798Z,11.13
2024-02-13T23:11:24.433Z,13.30
2024-02-13T23:12:26.719Z,14.38
2024-02-13T23:13:35.966Z,13.80
2024-02-13T23:14:43.448Z,13.77
2024-02-13T23:15:49.173Z,16.50
2024-02-13T23:16:51.893Z,15.25
2024-02-13T23:17:55.007Z,14.82
2024-02-13T23:18:57.625Z,13.80
2024-02-13T23:20:00.339Z,13.05
2024-02-13T23:21:04.475Z,13.23
2024-02-13T23:22:07.074Z,12.68
2024-02-13T23:23:10.046Z,9.77
2024-02-13T23:24:12.600Z,9.60
2024-02-13T23:25:15.626Z,10.65
2024-02-13T23:26:18.020Z,9.70
2024-02-13T23:27:20.609Z,9.68
2024-02-13T23:28:23.401Z,9.77
2024-02-13T23:29:28.231Z,10.40
2024-02-13T23:30:30.697Z,9.52
2024-02-13T23:31:33.072Z,9.45
2024-02-13T23:32:35.645Z,9.32
2024-02-13T23:33:39.801Z,8.90
2024-02-13T23:34:42.245Z,8.23
2024-02-13T23:35:47.241Z,8.93
2024-02-13T23:36:50.155Z,8.88
2024-02-13T23:37:52.540Z,8.15
2024-02-13T23:38:54.943Z,8.60
2024-02-13T23:39:57.466Z,8.68
2024-02-13T23:40:59.832Z,8.85
2024-02-13T23:42:02.986Z,7.25
2024-02-13T23:43:07.451Z,7.35
2024-02-13T23:44:10.852Z,7.85
2024-02-13T23:45:13.536Z,8.15
2024-02-13T23:46:15.869Z,7.40
2024-02-13T23:47:18.322Z,7.55
2024-02-13T23:48:23.935Z,7.20
2024-02-13T23:49:26.491Z,8.13
2024-02-13T23:50:28.967Z,8.68
2024-02-13T23:51:31.496Z,7.72
2024-02-13T23:52:35.333Z,6.75
2024-02-13T23:53:38.013Z,7.85
2024-02-13T23:54:41.197Z,6.93
2024-02-13T23:55:44.554Z,7.18
2024-02-13T23:56:47.023Z,6.88
2024-02-13T23:57:49.503Z,8.23
2024-02-13T23:58:52.416Z,7.03
2024-02-13T23:59:55.866Z,8.05
